Strona główna
METAR-TAF:

METAR-TAF

Lotnisko :

Akron, Ohio, Stany Zjednoczone

Szerokość geograficzna: 40-55-05N, Długość geograficzna: 081-26-33W, wysokość: 374 m

Aktualna obserwacja pogody

Raport powstał 13 minut temu, godzina 16:51 UTC
Wiatr 7 kt od południe
Temperatura 29°C
Wilgotność 40%
Ciśnienie 1021 hPa
Widzialność: 16.1 km
Mało chmury na wysokości 4000 ft
Mało chmury na wysokości 25000 ft

METAR: KCAK 151651Z 19007KT 10SM FEW040 FEW250 29/14 A3015 RMK AO2 SLP198 T02940139

czas: 13:04 (17:04 UTC)

Prognoza

Raport powstał 5 godziny i 44 minut temu, godzina 11:20 UTC
Prognoza ważna od 15 godzina 12 UTC do 16 godzina 12 UTC
Wiatr 5 kt od wschodnio-południowy wschód
Widzialność: 10 km
Mało chmury na wysokości 25000 ft
Od 16 godzina 1100 UTC
Wiatr 6 kt od południowo-południowy wschód
Widzialność: 10 km
Przerywane chmury na wysokości 10000 ft
przelotny w pobliże

TAF: KCAK 151120Z 1512/1612 11005KT P6SM FEW250 FM161100 15006KT P6SM VCSH BKN100

Obserwacja i prognoza pogody dla ponad 4000 lotnisk (raport METAR i TAF).

Dostępne stacje oznaczono żółtymi i czerwonymi punktami na mapie.

Najedź kursorem aby zobaczyć nazwę stacji.

Kliknij aby zobaczyć obserwacje i prognozy pogody.

Aby zmienić mapę: kliknij na zielony przycisk z czarnym krzyżykiem, aby powiększyć; na zielony przycisk z myślnikiem, aby pomniejszyć; na zielone strzałki, aby przejść do map sąsiednich.


METAR-TAF: